sensor_id;sensor_type;location;lat;lon;timestamp;P1;durP1;ratioP1;P2;durP2;ratioP2
23722;SDS011;12042;52.136;5.584;2022-09-09T05:17:33;11.25;;;6.72;;
23722;SDS011;12042;52.136;5.584;2022-09-09T05:19:59;9.57;;;6.88;;
23722;SDS011;12042;52.136;5.584;2022-09-09T05:22:24;8.98;;;6.68;;
23722;SDS011;12042;52.136;5.584;2022-09-09T05:24:50;9.65;;;7.20;;
23722;SDS011;12042;52.136;5.584;2022-09-09T05:27:16;11.57;;;6.80;;
23722;SDS011;12042;52.136;5.584;2022-09-09T05:29:44;8.02;;;6.75;;
23722;SDS011;12042;52.136;5.584;2022-09-09T05:32:11;7.53;;;6.65;;
23722;SDS011;12042;52.136;5.584;2022-09-09T05:34:36;9.73;;;6.45;;
23722;SDS011;12042;52.136;5.584;2022-09-09T05:37:02;8.52;;;6.47;;
23722;SDS011;12042;52.136;5.584;2022-09-09T05:39:29;7.50;;;6.13;;
23722;SDS011;12042;52.136;5.584;2022-09-09T05:41:55;8.18;;;6.45;;
23722;SDS011;12042;52.136;5.584;2022-09-09T05:44:20;9.07;;;6.15;;
23722;SDS011;12042;52.136;5.584;2022-09-09T05:46:48;8.55;;;6.28;;
23722;SDS011;12042;52.136;5.584;2022-09-09T05:49:14;9.85;;;6.15;;
23722;SDS011;12042;52.136;5.584;2022-09-09T05:51:40;9.38;;;6.00;;
23722;SDS011;12042;52.136;5.584;2022-09-09T05:54:07;8.75;;;5.35;;
23722;SDS011;12042;52.136;5.584;2022-09-09T05:56:33;11.90;;;5.43;;
23722;SDS011;12042;52.136;5.584;2022-09-09T05:58:59;9.57;;;5.80;;
23722;SDS011;12042;52.136;5.584;2022-09-09T06:01:26;10.35;;;5.80;;
23722;SDS011;12042;52.136;5.584;2022-09-09T06:03:54;8.43;;;5.32;;
23722;SDS011;12042;52.136;5.584;2022-09-09T06:06:21;6.82;;;5.30;;
23722;SDS011;12042;52.136;5.584;2022-09-09T06:08:53;8.05;;;4.97;;
23722;SDS011;12042;52.136;5.584;2022-09-09T06:11:21;8.60;;;4.93;;
23722;SDS011;12042;52.136;5.584;2022-09-09T06:13:49;10.80;;;5.40;;
23722;SDS011;12042;52.136;5.584;2022-09-09T06:16:18;6.60;;;5.13;;
23722;SDS011;12042;52.136;5.584;2022-09-09T06:18:48;7.43;;;4.75;;
23722;SDS011;12042;52.136;5.584;2022-09-09T06:21:15;8.15;;;4.50;;
23722;SDS011;12042;52.136;5.584;2022-09-09T06:23:42;10.25;;;5.00;;
23722;SDS011;12042;52.136;5.584;2022-09-09T06:26:13;10.93;;;5.07;;
23722;SDS011;12042;52.136;5.584;2022-09-09T06:28:42;6.15;;;4.50;;
23722;SDS011;12042;52.136;5.584;2022-09-09T06:31:08;7.60;;;4.30;;
23722;SDS011;12042;52.136;5.584;2022-09-09T06:33:39;6.55;;;4.40;;
23722;SDS011;12042;52.136;5.584;2022-09-09T06:36:16;9.80;;;4.70;;
23722;SDS011;12042;52.136;5.584;2022-09-09T06:38:49;8.80;;;4.88;;
23722;SDS011;12042;52.136;5.584;2022-09-09T06:41:16;10.02;;;5.13;;
23722;SDS011;12042;52.136;5.584;2022-09-09T06:43:43;8.82;;;4.43;;
23722;SDS011;12042;52.136;5.584;2022-09-09T06:46:20;10.93;;;4.68;;
23722;SDS011;12042;52.136;5.584;2022-09-09T06:48:46;7.53;;;4.10;;
23722;SDS011;12042;52.136;5.584;2022-09-09T06:53:41;13.57;;;4.90;;
23722;SDS011;12042;52.136;5.584;2022-09-09T06:58:36;12.13;;;4.18;;
23722;SDS011;12042;52.136;5.584;2022-09-09T07:01:06;9.45;;;4.00;;
23722;SDS011;12042;52.136;5.584;2022-09-09T07:03:32;9.02;;;3.95;;
23722;SDS011;12042;52.136;5.584;2022-09-09T07:05:58;7.40;;;4.00;;
23722;SDS011;12042;52.136;5.584;2022-09-09T07:08:24;12.00;;;3.80;;
23722;SDS011;12042;52.136;5.584;2022-09-09T07:10:51;10.70;;;4.80;;
23722;SDS011;12042;52.136;5.584;2022-09-09T07:13:19;10.88;;;4.60;;
23722;SDS011;12042;52.136;5.584;2022-09-09T07:15:50;9.23;;;4.28;;
23722;SDS011;12042;52.136;5.584;2022-09-09T07:18:16;5.90;;;3.72;;
23722;SDS011;12042;52.136;5.584;2022-09-09T07:20:41;12.55;;;4.57;;
23722;SDS011;12042;52.136;5.584;2022-09-09T07:23:07;9.52;;;4.50;;
23722;SDS011;12042;52.136;5.584;2022-09-09T07:25:32;15.10;;;4.53;;
23722;SDS011;12042;52.136;5.584;2022-09-09T07:27:58;10.45;;;4.40;;
23722;SDS011;12042;52.136;5.584;2022-09-09T07:30:23;8.27;;;4.00;;
23722;SDS011;12042;52.136;5.584;2022-09-09T07:32:50;7.63;;;4.10;;
23722;SDS011;12042;52.136;5.584;2022-09-09T07:35:16;14.07;;;4.30;;
23722;SDS011;12042;52.136;5.584;2022-09-09T07:37:42;7.13;;;4.07;;
23722;SDS011;12042;52.136;5.584;2022-09-09T07:40:08;9.25;;;3.92;;
23722;SDS011;12042;52.136;5.584;2022-09-09T07:42:35;9.18;;;3.75;;
23722;SDS011;12042;52.136;5.584;2022-09-09T07:45:02;6.95;;;3.63;;
23722;SDS011;12042;52.136;5.584;2022-09-09T07:47:28;7.70;;;3.67;;
23722;SDS011;12042;52.136;5.584;2022-09-09T07:49:54;7.70;;;3.90;;
23722;SDS011;12042;52.136;5.584;2022-09-09T07:52:20;9.70;;;4.25;;
23722;SDS011;12042;52.136;5.584;2022-09-09T07:54:46;9.05;;;4.03;;
23722;SDS011;12042;52.136;5.584;2022-09-09T07:57:12;8.63;;;3.53;;
23722;SDS011;12042;52.136;5.584;2022-09-09T07:59:38;9.05;;;3.72;;
23722;SDS011;12042;52.136;5.584;2022-09-09T08:02:03;12.35;;;3.85;;
23722;SDS011;12042;52.136;5.584;2022-09-09T08:04:29;12.98;;;4.30;;
23722;SDS011;12042;52.136;5.584;2022-09-09T08:06:56;6.07;;;3.33;;
23722;SDS011;12042;52.136;5.584;2022-09-09T08:09:23;5.45;;;3.35;;
23722;SDS011;12042;52.136;5.584;2022-09-09T08:11:52;6.07;;;2.97;;
23722;SDS011;12042;52.136;5.584;2022-09-09T08:14:18;8.90;;;2.97;;
23722;SDS011;12042;52.136;5.584;2022-09-09T08:16:44;9.70;;;3.33;;
23722;SDS011;12042;52.136;5.584;2022-09-09T08:19:12;6.18;;;2.70;;
23722;SDS011;12042;52.136;5.584;2022-09-09T08:21:40;7.38;;;2.75;;
23722;SDS011;12042;52.136;5.584;2022-09-09T08:24:08;6.70;;;2.80;;
23722;SDS011;12042;52.136;5.584;2022-09-09T08:26:39;6.55;;;2.95;;
23722;SDS011;12042;52.136;5.584;2022-09-09T08:29:07;6.15;;;3.03;;
23722;SDS011;12042;52.136;5.584;2022-09-09T08:31:39;5.90;;;2.53;;
23722;SDS011;12042;52.136;5.584;2022-09-09T08:34:07;9.90;;;2.70;;
23722;SDS011;12042;52.136;5.584;2022-09-09T08:36:34;7.70;;;2.90;;
23722;SDS011;12042;52.136;5.584;2022-09-09T08:39:03;6.28;;;2.90;;
23722;SDS011;12042;52.136;5.584;2022-09-09T08:41:42;8.18;;;2.60;;
23722;SDS011;12042;52.136;5.584;2022-09-09T08:52:20;7.28;;;2.83;;
23722;SDS011;12042;52.136;5.584;2022-09-09T08:54:50;10.45;;;2.60;;
23722;SDS011;12042;52.136;5.584;2022-09-09T08:57:19;10.73;;;2.95;;
23722;SDS011;12042;52.136;5.584;2022-09-09T08:59:47;7.10;;;2.72;;
23722;SDS011;12042;52.136;5.584;2022-09-09T09:03:00;7.72;;;2.47;;
23722;SDS011;12042;52.136;5.584;2022-09-09T09:07:55;9.93;;;2.67;;
23722;SDS011;12042;52.136;5.584;2022-09-09T09:10:39;7.32;;;2.72;;
23722;SDS011;12042;52.136;5.584;2022-09-09T09:15:56;7.13;;;2.40;;
23722;SDS011;12042;52.136;5.584;2022-09-09T09:18:27;9.63;;;2.78;;
23722;SDS011;12042;52.136;5.584;2022-09-09T09:23:34;8.80;;;2.78;;
23722;SDS011;12042;52.136;5.584;2022-09-09T09:26:09;7.50;;;2.78;;
23722;SDS011;12042;52.136;5.584;2022-09-09T09:28:37;6.63;;;2.45;;
23722;SDS011;12042;52.136;5.584;2022-09-09T09:31:06;7.90;;;2.60;;
23722;SDS011;12042;52.136;5.584;2022-09-09T09:33:37;9.45;;;2.63;;
23722;SDS011;12042;52.136;5.584;2022-09-09T09:36:11;8.10;;;2.38;;
23722;SDS011;12042;52.136;5.584;2022-09-09T09:38:40;9.70;;;2.70;;
23722;SDS011;12042;52.136;5.584;2022-09-09T09:41:16;8.73;;;2.80;;
23722;SDS011;12042;52.136;5.584;2022-09-09T09:43:52;7.10;;;2.53;;
23722;SDS011;12042;52.136;5.584;2022-09-09T09:46:19;9.40;;;2.45;;
23722;SDS011;12042;52.136;5.584;2022-09-09T09:48:58;9.05;;;2.58;;
23722;SDS011;12042;52.136;5.584;2022-09-09T09:51:29;7.32;;;2.42;;
23722;SDS011;12042;52.136;5.584;2022-09-09T09:56:49;6.53;;;1.98;;
23722;SDS011;12042;52.136;5.584;2022-09-09T09:59:22;5.55;;;2.00;;
23722;SDS011;12042;52.136;5.584;2022-09-09T10:02:15;9.20;;;2.53;;
23722;SDS011;12042;52.136;5.584;2022-09-09T10:04:42;10.25;;;2.25;;
23722;SDS011;12042;52.136;5.584;2022-09-09T10:07:11;4.18;;;1.90;;
23722;SDS011;12042;52.136;5.584;2022-09-09T10:09:54;6.05;;;2.58;;
23722;SDS011;12042;52.136;5.584;2022-09-09T10:12:27;8.93;;;2.50;;
23722;SDS011;12042;52.136;5.584;2022-09-09T10:15:22;8.27;;;2.42;;
23722;SDS011;12042;52.136;5.584;2022-09-09T10:20:53;5.55;;;1.98;;
23722;SDS011;12042;52.136;5.584;2022-09-09T10:26:17;7.13;;;2.58;;
23722;SDS011;12042;52.136;5.584;2022-09-09T10:29:17;5.07;;;2.40;;
23722;SDS011;12042;52.136;5.584;2022-09-09T10:32:32;7.25;;;2.33;;
23722;SDS011;12042;52.136;5.584;2022-09-09T10:43:13;7.75;;;2.38;;
23722;SDS011;12042;52.136;5.584;2022-09-09T10:46:00;6.40;;;2.15;;
23722;SDS011;12042;52.136;5.584;2022-09-09T10:52:00;6.45;;;2.53;;
23722;SDS011;12042;52.136;5.584;2022-09-09T10:54:56;7.50;;;3.20;;
23722;SDS011;12042;52.136;5.584;2022-09-09T11:02:52;3.15;;;2.75;;
23722;SDS011;12042;52.136;5.584;2022-09-09T11:05:22;7.25;;;3.03;;
23722;SDS011;12042;52.136;5.584;2022-09-09T11:08:01;7.28;;;2.90;;
23722;SDS011;12042;52.136;5.584;2022-09-09T11:13:19;4.65;;;3.90;;
23722;SDS011;12042;52.136;5.584;2022-09-09T11:16:15;8.45;;;4.22;;
23722;SDS011;12042;52.136;5.584;2022-09-09T11:22:04;7.13;;;4.40;;
23722;SDS011;12042;52.136;5.584;2022-09-09T11:24:51;10.05;;;4.43;;
23722;SDS011;12042;52.136;5.584;2022-09-09T11:27:21;9.80;;;5.60;;
23722;SDS011;12042;52.136;5.584;2022-09-09T11:32:54;9.25;;;4.55;;
23722;SDS011;12042;52.136;5.584;2022-09-09T11:40:56;9.45;;;4.60;;
23722;SDS011;12042;52.136;5.584;2022-09-09T11:43:28;8.50;;;3.90;;
23722;SDS011;12042;52.136;5.584;2022-09-09T11:45:59;6.20;;;3.40;;
23722;SDS011;12042;52.136;5.584;2022-09-09T11:48:40;4.90;;;3.65;;
23722;SDS011;12042;52.136;5.584;2022-09-09T11:53:55;6.38;;;3.50;;
23722;SDS011;12042;52.136;5.584;2022-09-09T11:56:29;9.80;;;3.63;;
23722;SDS011;12042;52.136;5.584;2022-09-09T11:59:16;12.55;;;3.97;;
23722;SDS011;12042;52.136;5.584;2022-09-09T12:01:58;4.95;;;3.33;;
23722;SDS011;12042;52.136;5.584;2022-09-09T12:04:32;6.25;;;3.53;;
23722;SDS011;12042;52.136;5.584;2022-09-09T12:07:00;9.07;;;3.70;;
23722;SDS011;12042;52.136;5.584;2022-09-09T12:09:29;6.10;;;3.30;;
23722;SDS011;12042;52.136;5.584;2022-09-09T12:14:38;3.70;;;2.67;;
23722;SDS011;12042;52.136;5.584;2022-09-09T12:19:39;4.20;;;2.60;;
23722;SDS011;12042;52.136;5.584;2022-09-09T12:22:07;5.18;;;2.42;;
23722;SDS011;12042;52.136;5.584;2022-09-09T12:25:00;5.07;;;2.60;;
23722;SDS011;12042;52.136;5.584;2022-09-09T12:27:34;3.60;;;2.50;;
23722;SDS011;12042;52.136;5.584;2022-09-09T12:30:11;3.90;;;2.63;;
23722;SDS011;12042;52.136;5.584;2022-09-09T12:32:39;4.50;;;3.00;;
23722;SDS011;12042;52.136;5.584;2022-09-09T12:35:10;5.85;;;3.28;;
23722;SDS011;12042;52.136;5.584;2022-09-09T12:37:56;5.78;;;3.70;;
23722;SDS011;12042;52.136;5.584;2022-09-09T12:40:27;5.20;;;3.70;;
23722;SDS011;12042;52.136;5.584;2022-09-09T12:42:54;5.60;;;3.92;;
23722;SDS011;12042;52.136;5.584;2022-09-09T12:45:21;6.35;;;3.42;;
23722;SDS011;12042;52.136;5.584;2022-09-09T12:50:25;5.80;;;3.30;;
23722;SDS011;12042;52.136;5.584;2022-09-09T12:52:56;5.40;;;3.60;;
23722;SDS011;12042;52.136;5.584;2022-09-09T12:55:27;7.13;;;3.50;;
23722;SDS011;12042;52.136;5.584;2022-09-09T12:57:55;4.85;;;3.10;;
23722;SDS011;12042;52.136;5.584;2022-09-09T13:00:23;6.57;;;3.38;;
23722;SDS011;12042;52.136;5.584;2022-09-09T13:02:57;4.43;;;3.10;;
23722;SDS011;12042;52.136;5.584;2022-09-09T13:05:27;8.30;;;3.38;;
23722;SDS011;12042;52.136;5.584;2022-09-09T13:08:05;6.63;;;3.22;;
23722;SDS011;12042;52.136;5.584;2022-09-09T13:10:35;5.93;;;3.22;;
23722;SDS011;12042;52.136;5.584;2022-09-09T13:13:27;4.95;;;3.38;;
23722;SDS011;12042;52.136;5.584;2022-09-09T13:15:56;3.15;;;2.85;;
23722;SDS011;12042;52.136;5.584;2022-09-09T13:18:25;5.07;;;2.70;;
23722;SDS011;12042;52.136;5.584;2022-09-09T13:20:54;7.03;;;2.63;;
23722;SDS011;12042;52.136;5.584;2022-09-09T13:23:21;5.68;;;2.53;;
23722;SDS011;12042;52.136;5.584;2022-09-09T13:25:53;5.55;;;2.45;;
23722;SDS011;12042;52.136;5.584;2022-09-09T13:28:21;4.20;;;2.30;;
23722;SDS011;12042;52.136;5.584;2022-09-09T13:30:58;6.20;;;2.83;;
23722;SDS011;12042;52.136;5.584;2022-09-09T13:33:29;4.32;;;3.03;;
23722;SDS011;12042;52.136;5.584;2022-09-09T13:35:57;5.88;;;2.75;;
23722;SDS011;12042;52.136;5.584;2022-09-09T13:38:28;8.32;;;3.40;;
23722;SDS011;12042;52.136;5.584;2022-09-09T13:41:05;7.20;;;3.75;;
23722;SDS011;12042;52.136;5.584;2022-09-09T13:43:43;4.30;;;3.35;;
23722;SDS011;12042;52.136;5.584;2022-09-09T13:49:00;6.82;;;3.60;;
23722;SDS011;12042;52.136;5.584;2022-09-09T13:51:33;3.78;;;2.60;;
23722;SDS011;12042;52.136;5.584;2022-09-09T13:54:02;4.03;;;2.90;;
23722;SDS011;12042;52.136;5.584;2022-09-09T13:56:31;5.93;;;2.80;;
23722;SDS011;12042;52.136;5.584;2022-09-09T13:58:58;5.30;;;2.78;;
23722;SDS011;12042;52.136;5.584;2022-09-09T14:01:24;3.63;;;2.65;;
23722;SDS011;12042;52.136;5.584;2022-09-09T14:03:49;4.18;;;2.53;;
23722;SDS011;12042;52.136;5.584;2022-09-09T14:06:15;2.72;;;2.30;;
23722;SDS011;12042;52.136;5.584;2022-09-09T14:08:42;3.88;;;2.70;;
23722;SDS011;12042;52.136;5.584;2022-09-09T14:11:10;4.53;;;2.50;;
23722;SDS011;12042;52.136;5.584;2022-09-09T14:13:38;6.00;;;2.53;;
23722;SDS011;12042;52.136;5.584;2022-09-09T14:16:04;4.28;;;2.28;;
23722;SDS011;12042;52.136;5.584;2022-09-09T14:18:29;5.63;;;2.60;;
23722;SDS011;12042;52.136;5.584;2022-09-09T14:20:55;4.07;;;2.30;;
23722;SDS011;12042;52.136;5.584;2022-09-09T14:23:22;3.78;;;2.50;;
23722;SDS011;12042;52.136;5.584;2022-09-09T14:25:47;3.90;;;2.70;;
23722;SDS011;12042;52.136;5.584;2022-09-09T14:28:14;4.18;;;2.60;;
23722;SDS011;12042;52.136;5.584;2022-09-09T14:30:40;2.25;;;2.05;;
23722;SDS011;12042;52.136;5.584;2022-09-09T14:33:07;5.70;;;2.40;;
23722;SDS011;12042;52.136;5.584;2022-09-09T14:35:35;4.57;;;2.20;;
23722;SDS011;12042;52.136;5.584;2022-09-09T14:38:01;2.40;;;2.15;;
23722;SDS011;12042;52.136;5.584;2022-09-09T14:40:28;6.65;;;2.70;;
23722;SDS011;12042;52.136;5.584;2022-09-09T14:42:54;4.88;;;2.15;;
23722;SDS011;12042;52.136;5.584;2022-09-09T14:45:21;6.38;;;2.55;;
23722;SDS011;12042;52.136;5.584;2022-09-09T14:47:49;4.72;;;2.17;;
23722;SDS011;12042;52.136;5.584;2022-09-09T14:50:16;3.08;;;2.60;;
23722;SDS011;12042;52.136;5.584;2022-09-09T14:52:43;7.72;;;2.70;;
23722;SDS011;12042;52.136;5.584;2022-09-09T14:55:09;4.30;;;2.60;;
23722;SDS011;12042;52.136;5.584;2022-09-09T14:57:35;4.95;;;2.85;;
23722;SDS011;12042;52.136;5.584;2022-09-09T15:00:02;4.68;;;2.63;;
23722;SDS011;12042;52.136;5.584;2022-09-09T15:02:29;3.95;;;2.83;;
23722;SDS011;12042;52.136;5.584;2022-09-09T15:04:54;3.97;;;2.17;;
23722;SDS011;12042;52.136;5.584;2022-09-09T15:07:22;6.30;;;2.88;;
23722;SDS011;12042;52.136;5.584;2022-09-09T15:09:49;5.60;;;2.70;;
23722;SDS011;12042;52.136;5.584;2022-09-09T15:12:15;4.78;;;2.53;;
23722;SDS011;12042;52.136;5.584;2022-09-09T15:14:43;6.03;;;3.50;;
23722;SDS011;12042;52.136;5.584;2022-09-09T15:17:10;5.60;;;3.15;;
23722;SDS011;12042;52.136;5.584;2022-09-09T15:19:36;5.30;;;3.17;;
23722;SDS011;12042;52.136;5.584;2022-09-09T15:22:03;4.75;;;3.10;;
23722;SDS011;12042;52.136;5.584;2022-09-09T15:24:30;3.50;;;2.70;;
23722;SDS011;12042;52.136;5.584;2022-09-09T15:26:56;3.55;;;2.53;;
23722;SDS011;12042;52.136;5.584;2022-09-09T15:29:22;3.83;;;2.25;;
23722;SDS011;12042;52.136;5.584;2022-09-09T15:31:48;4.53;;;3.15;;
23722;SDS011;12042;52.136;5.584;2022-09-09T15:34:14;7.20;;;3.35;;
23722;SDS011;12042;52.136;5.584;2022-09-09T15:36:40;4.32;;;2.50;;
23722;SDS011;12042;52.136;5.584;2022-09-09T15:39:08;1.80;;;1.70;;
23722;SDS011;12042;52.136;5.584;2022-09-09T15:41:38;3.90;;;1.80;;
23722;SDS011;12042;52.136;5.584;2022-09-09T15:44:04;2.08;;;1.70;;
23722;SDS011;12042;52.136;5.584;2022-09-09T15:46:34;1.88;;;1.13;;
23722;SDS011;12042;52.136;5.584;2022-09-09T15:51:39;1.98;;;1.00;;
23722;SDS011;12042;52.136;5.584;2022-09-09T15:54:08;4.15;;;1.23;;
23722;SDS011;12042;52.136;5.584;2022-09-09T15:56:37;2.33;;;1.00;;
23722;SDS011;12042;52.136;5.584;2022-09-09T15:59:03;1.70;;;1.05;;
23722;SDS011;12042;52.136;5.584;2022-09-09T16:01:29;1.48;;;1.20;;
23722;SDS011;12042;52.136;5.584;2022-09-09T16:03:56;2.60;;;1.42;;
23722;SDS011;12042;52.136;5.584;2022-09-09T16:06:23;4.20;;;1.40;;
23722;SDS011;12042;52.136;5.584;2022-09-09T16:08:50;4.07;;;1.60;;
23722;SDS011;12042;52.136;5.584;2022-09-09T16:11:19;2.75;;;1.38;;
23722;SDS011;12042;52.136;5.584;2022-09-09T16:13:48;1.58;;;1.48;;
23722;SDS011;12042;52.136;5.584;2022-09-09T16:16:16;1.75;;;1.65;;
23722;SDS011;12042;52.136;5.584;2022-09-09T16:18:47;4.47;;;1.70;;
23722;SDS011;12042;52.136;5.584;2022-09-09T16:21:18;2.22;;;1.90;;
23722;SDS011;12042;52.136;5.584;2022-09-09T16:23:45;1.58;;;1.48;;
23722;SDS011;12042;52.136;5.584;2022-09-09T16:26:11;2.20;;;1.77;;
23722;SDS011;12042;52.136;5.584;2022-09-09T16:28:38;3.05;;;1.48;;
23722;SDS011;12042;52.136;5.584;2022-09-09T16:31:11;2.97;;;1.45;;
23722;SDS011;12042;52.136;5.584;2022-09-09T16:33:41;2.65;;;1.20;;
23722;SDS011;12042;52.136;5.584;2022-09-09T16:36:07;2.03;;;1.52;;
23722;SDS011;12042;52.136;5.584;2022-09-09T16:38:38;2.95;;;1.42;;
23722;SDS011;12042;52.136;5.584;2022-09-09T16:41:05;2.72;;;1.60;;
23722;SDS011;12042;52.136;5.584;2022-09-09T16:43:34;1.65;;;1.55;;
23722;SDS011;12042;52.136;5.584;2022-09-09T16:46:02;3.00;;;1.75;;
23722;SDS011;12042;52.136;5.584;2022-09-09T16:48:32;2.28;;;1.80;;
23722;SDS011;12042;52.136;5.584;2022-09-09T16:51:04;4.68;;;2.25;;
23722;SDS011;12042;52.136;5.584;2022-09-09T16:53:32;2.20;;;1.58;;
23722;SDS011;12042;52.136;5.584;2022-09-09T16:55:58;1.75;;;1.50;;
23722;SDS011;12042;52.136;5.584;2022-09-09T16:58:29;2.15;;;1.95;;
23722;SDS011;12042;52.136;5.584;2022-09-09T17:00:58;1.83;;;1.73;;
23722;SDS011;12042;52.136;5.584;2022-09-09T17:03:24;4.18;;;2.40;;
23722;SDS011;12042;52.136;5.584;2022-09-09T17:05:50;2.60;;;2.20;;
23722;SDS011;12042;52.136;5.584;2022-09-09T17:08:16;2.33;;;1.90;;
23722;SDS011;12042;52.136;5.584;2022-09-09T17:10:42;5.22;;;2.15;;
23722;SDS011;12042;52.136;5.584;2022-09-09T17:13:08;2.63;;;2.33;;
23722;SDS011;12042;52.136;5.584;2022-09-09T17:15:38;2.60;;;2.40;;
23722;SDS011;12042;52.136;5.584;2022-09-09T17:18:07;2.85;;;2.28;;
23722;SDS011;12042;52.136;5.584;2022-09-09T17:20:43;4.05;;;2.30;;
23722;SDS011;12042;52.136;5.584;2022-09-09T17:23:09;4.25;;;2.70;;
23722;SDS011;12042;52.136;5.584;2022-09-09T17:25:35;3.50;;;3.20;;
23722;SDS011;12042;52.136;5.584;2022-09-09T17:28:02;6.80;;;3.08;;
23722;SDS011;12042;52.136;5.584;2022-09-09T17:30:34;10.23;;;3.60;;
23722;SDS011;12042;52.136;5.584;2022-09-09T17:33:02;6.28;;;3.60;;
23722;SDS011;12042;52.136;5.584;2022-09-09T17:35:28;3.90;;;3.58;;
23722;SDS011;12042;52.136;5.584;2022-09-09T17:37:54;3.47;;;3.15;;
23722;SDS011;12042;52.136;5.584;2022-09-09T17:40:21;3.55;;;3.25;;
23722;SDS011;12042;52.136;5.584;2022-09-09T17:42:47;7.05;;;3.90;;
23722;SDS011;12042;52.136;5.584;2022-09-09T17:45:13;5.53;;;3.30;;
23722;SDS011;12042;52.136;5.584;2022-09-09T17:47:39;3.67;;;3.38;;
23722;SDS011;12042;52.136;5.584;2022-09-09T17:50:08;6.80;;;3.45;;
23722;SDS011;12042;52.136;5.584;2022-09-09T17:52:34;4.00;;;3.58;;
23722;SDS011;12042;52.136;5.584;2022-09-09T17:55:00;5.50;;;3.85;;
23722;SDS011;12042;52.136;5.584;2022-09-09T17:57:26;4.80;;;4.40;;
23722;SDS011;12042;52.136;5.584;2022-09-09T17:59:52;4.65;;;3.72;;
23722;SDS011;12042;52.136;5.584;2022-09-09T18:02:18;8.98;;;4.00;;
23722;SDS011;12042;52.136;5.584;2022-09-09T18:04:43;3.75;;;3.20;;
23722;SDS011;12042;52.136;5.584;2022-09-09T18:07:09;3.72;;;3.35;;
23722;SDS011;12042;52.136;5.584;2022-09-09T18:09:34;4.05;;;3.55;;
23722;SDS011;12042;52.136;5.584;2022-09-09T18:12:03;5.03;;;4.07;;
23722;SDS011;12042;52.136;5.584;2022-09-09T18:14:29;7.45;;;5.10;;
23722;SDS011;12042;52.136;5.584;2022-09-09T18:16:56;6.50;;;5.05;;
23722;SDS011;12042;52.136;5.584;2022-09-09T18:19:24;6.50;;;5.10;;
23722;SDS011;12042;52.136;5.584;2022-09-09T18:21:52;5.43;;;4.95;;
23722;SDS011;12042;52.136;5.584;2022-09-09T18:24:19;6.63;;;4.53;;
23722;SDS011;12042;52.136;5.584;2022-09-09T18:26:46;4.95;;;4.55;;
23722;SDS011;12042;52.136;5.584;2022-09-09T18:29:14;4.32;;;3.97;;
23722;SDS011;12042;52.136;5.584;2022-09-09T18:31:42;5.63;;;4.00;;
23722;SDS011;12042;52.136;5.584;2022-09-09T18:34:09;3.97;;;3.42;;
23722;SDS011;12042;52.136;5.584;2022-09-09T18:36:37;4.22;;;4.00;;
23722;SDS011;12042;52.136;5.584;2022-09-09T18:39:12;7.13;;;4.47;;
23722;SDS011;12042;52.136;5.584;2022-09-09T18:41:41;8.77;;;5.03;;
23722;SDS011;12042;52.136;5.584;2022-09-09T18:44:12;6.38;;;5.50;;
23722;SDS011;12042;52.136;5.584;2022-09-09T18:46:43;6.90;;;6.13;;
23722;SDS011;12042;52.136;5.584;2022-09-09T18:49:09;8.82;;;8.07;;
23722;SDS011;12042;52.136;5.584;2022-09-09T18:51:37;12.10;;;10.93;;
23722;SDS011;12042;52.136;5.584;2022-09-09T18:54:24;11.25;;;8.75;;
23722;SDS011;12042;52.136;5.584;2022-09-09T18:56:53;9.82;;;7.20;;
23722;SDS011;12042;52.136;5.584;2022-09-09T18:59:20;7.18;;;6.45;;
23722;SDS011;12042;52.136;5.584;2022-09-09T19:01:48;7.05;;;6.35;;
23722;SDS011;12042;52.136;5.584;2022-09-09T19:04:15;8.77;;;7.60;;
23722;SDS011;12042;52.136;5.584;2022-09-09T19:06:42;12.18;;;9.02;;
23722;SDS011;12042;52.136;5.584;2022-09-09T19:09:10;11.65;;;10.40;;
23722;SDS011;12042;52.136;5.584;2022-09-09T19:11:37;10.80;;;9.20;;
23722;SDS011;12042;52.136;5.584;2022-09-09T19:14:03;9.20;;;8.35;;
23722;SDS011;12042;52.136;5.584;2022-09-09T19:16:32;10.40;;;8.68;;
23722;SDS011;12042;52.136;5.584;2022-09-09T19:21:33;10.60;;;9.65;;
23722;SDS011;12042;52.136;5.584;2022-09-09T19:26:31;10.68;;;9.63;;
23722;SDS011;12042;52.136;5.584;2022-09-09T19:29:07;10.85;;;9.77;;
23722;SDS011;12042;52.136;5.584;2022-09-09T19:31:39;11.10;;;9.68;;
23722;SDS011;12042;52.136;5.584;2022-09-09T19:34:05;10.02;;;9.13;;
23722;SDS011;12042;52.136;5.584;2022-09-09T19:36:31;10.85;;;9.88;;
23722;SDS011;12042;52.136;5.584;2022-09-09T19:38:57;11.05;;;9.80;;
23722;SDS011;12042;52.136;5.584;2022-09-09T19:41:24;12.07;;;9.70;;
23722;SDS011;12042;52.136;5.584;2022-09-09T19:43:51;11.18;;;10.18;;
23722;SDS011;12042;52.136;5.584;2022-09-09T19:46:21;11.45;;;10.20;;
23722;SDS011;12042;52.136;5.584;2022-09-09T19:48:47;11.98;;;10.18;;
23722;SDS011;12042;52.136;5.584;2022-09-09T19:51:14;10.77;;;9.68;;
23722;SDS011;12042;52.136;5.584;2022-09-09T19:53:43;10.80;;;9.70;;
23722;SDS011;12042;52.136;5.584;2022-09-09T19:56:10;10.52;;;9.43;;
23722;SDS011;12042;52.136;5.584;2022-09-09T19:58:37;11.70;;;9.93;;
23722;SDS011;12042;52.136;5.584;2022-09-09T20:01:05;11.40;;;10.48;;
23722;SDS011;12042;52.136;5.584;2022-09-09T20:03:38;14.27;;;11.63;;
23722;SDS011;12042;52.136;5.584;2022-09-09T20:06:05;13.27;;;11.95;;
23722;SDS011;12042;52.136;5.584;2022-09-09T20:08:32;16.67;;;14.35;;
23722;SDS011;12042;52.136;5.584;2022-09-09T20:10:59;14.77;;;13.27;;
23722;SDS011;12042;52.136;5.584;2022-09-09T20:13:25;15.10;;;13.65;;
23722;SDS011;12042;52.136;5.584;2022-09-09T20:16:00;15.70;;;12.65;;
23722;SDS011;12042;52.136;5.584;2022-09-09T20:18:28;12.50;;;11.32;;
23722;SDS011;12042;52.136;5.584;2022-09-09T20:20:56;13.40;;;11.57;;
23722;SDS011;12042;52.136;5.584;2022-09-09T20:23:27;11.93;;;10.70;;
23722;SDS011;12042;52.136;5.584;2022-09-09T20:25:53;14.27;;;12.18;;
23722;SDS011;12042;52.136;5.584;2022-09-09T20:28:19;13.70;;;12.23;;
23722;SDS011;12042;52.136;5.584;2022-09-09T20:30:49;14.35;;;13.05;;
23722;SDS011;12042;52.136;5.584;2022-09-09T20:33:17;13.75;;;12.48;;
23722;SDS011;12042;52.136;5.584;2022-09-09T20:35:43;14.50;;;12.90;;
23722;SDS011;12042;52.136;5.584;2022-09-09T20:38:09;14.35;;;12.95;;
23722;SDS011;12042;52.136;5.584;2022-09-09T20:40:35;14.60;;;13.30;;
23722;SDS011;12042;52.136;5.584;2022-09-09T20:43:02;14.30;;;13.02;;
23722;SDS011;12042;52.136;5.584;2022-09-09T20:45:28;15.75;;;14.15;;
23722;SDS011;12042;52.136;5.584;2022-09-09T20:48:02;15.98;;;14.40;;
23722;SDS011;12042;52.136;5.584;2022-09-09T20:50:28;15.48;;;13.15;;
23722;SDS011;12042;52.136;5.584;2022-09-09T20:52:54;15.18;;;13.73;;
23722;SDS011;12042;52.136;5.584;2022-09-09T20:55:20;14.65;;;13.45;;
23722;SDS011;12042;52.136;5.584;2022-09-09T20:57:45;15.98;;;14.07;;
23722;SDS011;12042;52.136;5.584;2022-09-09T21:00:11;16.83;;;15.23;;
23722;SDS011;12042;52.136;5.584;2022-09-09T21:02:38;18.17;;;15.45;;
23722;SDS011;12042;52.136;5.584;2022-09-09T21:05:04;16.88;;;15.15;;
23722;SDS011;12042;52.136;5.584;2022-09-09T21:07:30;18.27;;;15.57;;
23722;SDS011;12042;52.136;5.584;2022-09-09T21:09:56;16.20;;;14.52;;
23722;SDS011;12042;52.136;5.584;2022-09-09T21:12:22;16.80;;;14.90;;
23722;SDS011;12042;52.136;5.584;2022-09-09T21:14:49;16.58;;;14.88;;
